sensor_id;sensor_type;location;lat;lon;timestamp;P1;durP1;ratioP1;P2;durP2;ratioP2
37303;SDS011;23188;51.188;16.374;2022-08-21T00:00:23;6.95;;;6.35;;
37303;SDS011;23188;51.188;16.374;2022-08-21T00:04:29;6.80;;;6.10;;
37303;SDS011;23188;51.188;16.374;2022-08-21T00:08:31;9.20;;;8.30;;
37303;SDS011;23188;51.188;16.374;2022-08-21T00:12:32;7.62;;;5.83;;
37303;SDS011;23188;51.188;16.374;2022-08-21T00:16:34;6.55;;;4.95;;
37303;SDS011;23188;51.188;16.374;2022-08-21T00:20:35;5.75;;;5.12;;
37303;SDS011;23188;51.188;16.374;2022-08-21T00:24:38;7.47;;;5.87;;
37303;SDS011;23188;51.188;16.374;2022-08-21T00:28:40;7.08;;;5.72;;
37303;SDS011;23188;51.188;16.374;2022-08-21T00:32:42;6.72;;;5.17;;
37303;SDS011;23188;51.188;16.374;2022-08-21T00:36:44;7.90;;;6.25;;
37303;SDS011;23188;51.188;16.374;2022-08-21T00:40:56;7.05;;;5.12;;
37303;SDS011;23188;51.188;16.374;2022-08-21T00:44:52;6.15;;;5.25;;
37303;SDS011;23188;51.188;16.374;2022-08-21T00:48:54;6.12;;;5.53;;
37303;SDS011;23188;51.188;16.374;2022-08-21T00:52:55;5.65;;;4.70;;
37303;SDS011;23188;51.188;16.374;2022-08-21T00:57:03;9.50;;;6.00;;
37303;SDS011;23188;51.188;16.374;2022-08-21T01:01:10;4.33;;;4.03;;
37303;SDS011;23188;51.188;16.374;2022-08-21T01:05:11;6.30;;;5.17;;
37303;SDS011;23188;51.188;16.374;2022-08-21T01:09:14;5.85;;;4.65;;
37303;SDS011;23188;51.188;16.374;2022-08-21T01:13:16;6.12;;;5.55;;
37303;SDS011;23188;51.188;16.374;2022-08-21T01:17:19;5.85;;;5.22;;
37303;SDS011;23188;51.188;16.374;2022-08-21T01:21:23;9.00;;;4.40;;
37303;SDS011;23188;51.188;16.374;2022-08-21T01:25:27;8.23;;;4.08;;
37303;SDS011;23188;51.188;16.374;2022-08-21T01:33:47;4.55;;;4.10;;
37303;SDS011;23188;51.188;16.374;2022-08-21T01:37:49;4.55;;;3.20;;
37303;SDS011;23188;51.188;16.374;2022-08-21T01:41:50;10.10;;;4.85;;
37303;SDS011;23188;51.188;16.374;2022-08-21T01:45:52;3.65;;;3.35;;
37303;SDS011;23188;51.188;16.374;2022-08-21T01:49:53;5.12;;;4.12;;
37303;SDS011;23188;51.188;16.374;2022-08-21T01:53:55;5.70;;;3.52;;
37303;SDS011;23188;51.188;16.374;2022-08-21T01:57:57;4.67;;;4.20;;
37303;SDS011;23188;51.188;16.374;2022-08-21T02:02:00;5.55;;;4.97;;
37303;SDS011;23188;51.188;16.374;2022-08-21T02:06:02;7.30;;;4.55;;
37303;SDS011;23188;51.188;16.374;2022-08-21T02:10:08;5.30;;;4.40;;
37303;SDS011;23188;51.188;16.374;2022-08-21T02:14:13;7.53;;;4.45;;
37303;SDS011;23188;51.188;16.374;2022-08-21T02:18:15;6.53;;;4.28;;
37303;SDS011;23188;51.188;16.374;2022-08-21T02:22:17;5.40;;;4.35;;
37303;SDS011;23188;51.188;16.374;2022-08-21T02:26:18;5.25;;;4.75;;
37303;SDS011;23188;51.188;16.374;2022-08-21T02:30:25;9.13;;;4.53;;
37303;SDS011;23188;51.188;16.374;2022-08-21T02:34:26;7.42;;;5.40;;
37303;SDS011;23188;51.188;16.374;2022-08-21T02:38:29;5.12;;;3.52;;
37303;SDS011;23188;51.188;16.374;2022-08-21T02:42:34;8.78;;;5.97;;
37303;SDS011;23188;51.188;16.374;2022-08-21T02:46:35;6.50;;;4.62;;
37303;SDS011;23188;51.188;16.374;2022-08-21T02:50:38;7.45;;;5.33;;
37303;SDS011;23188;51.188;16.374;2022-08-21T02:54:43;8.88;;;4.92;;
37303;SDS011;23188;51.188;16.374;2022-08-21T02:58:46;8.88;;;6.55;;
37303;SDS011;23188;51.188;16.374;2022-08-21T03:02:51;12.60;;;6.78;;
37303;SDS011;23188;51.188;16.374;2022-08-21T03:06:54;7.35;;;6.45;;
37303;SDS011;23188;51.188;16.374;2022-08-21T03:10:55;6.30;;;5.05;;
37303;SDS011;23188;51.188;16.374;2022-08-21T03:14:57;8.65;;;7.15;;
37303;SDS011;23188;51.188;16.374;2022-08-21T03:18:58;6.15;;;5.33;;
37303;SDS011;23188;51.188;16.374;2022-08-21T03:23:00;9.33;;;6.33;;
37303;SDS011;23188;51.188;16.374;2022-08-21T03:27:04;7.50;;;6.70;;
37303;SDS011;23188;51.188;16.374;2022-08-21T03:31:05;9.08;;;7.03;;
37303;SDS011;23188;51.188;16.374;2022-08-21T03:35:07;9.58;;;7.75;;
37303;SDS011;23188;51.188;16.374;2022-08-21T03:39:09;7.92;;;6.60;;
37303;SDS011;23188;51.188;16.374;2022-08-21T03:43:10;7.90;;;7.10;;
37303;SDS011;23188;51.188;16.374;2022-08-21T03:47:11;6.80;;;6.10;;
37303;SDS011;23188;51.188;16.374;2022-08-21T03:51:13;8.38;;;6.85;;
37303;SDS011;23188;51.188;16.374;2022-08-21T03:55:14;7.47;;;6.15;;
37303;SDS011;23188;51.188;16.374;2022-08-21T03:59:15;6.97;;;5.42;;
37303;SDS011;23188;51.188;16.374;2022-08-21T04:03:17;9.28;;;6.83;;
37303;SDS011;23188;51.188;16.374;2022-08-21T04:07:19;9.25;;;7.55;;
37303;SDS011;23188;51.188;16.374;2022-08-21T04:11:20;7.12;;;6.28;;
37303;SDS011;23188;51.188;16.374;2022-08-21T04:15:22;6.55;;;5.92;;
37303;SDS011;23188;51.188;16.374;2022-08-21T04:19:26;7.45;;;6.75;;
37303;SDS011;23188;51.188;16.374;2022-08-21T04:23:28;7.97;;;6.33;;
37303;SDS011;23188;51.188;16.374;2022-08-21T04:27:29;8.93;;;8.03;;
37303;SDS011;23188;51.188;16.374;2022-08-21T04:31:31;8.30;;;7.15;;
37303;SDS011;23188;51.188;16.374;2022-08-21T04:35:34;9.68;;;7.03;;
37303;SDS011;23188;51.188;16.374;2022-08-21T04:39:35;8.98;;;8.08;;
37303;SDS011;23188;51.188;16.374;2022-08-21T04:43:37;10.98;;;8.43;;
37303;SDS011;23188;51.188;16.374;2022-08-21T04:47:39;8.33;;;7.45;;
37303;SDS011;23188;51.188;16.374;2022-08-21T04:51:41;9.83;;;7.65;;
37303;SDS011;23188;51.188;16.374;2022-08-21T04:55:42;8.78;;;7.80;;
37303;SDS011;23188;51.188;16.374;2022-08-21T04:59:47;15.35;;;7.45;;
37303;SDS011;23188;51.188;16.374;2022-08-21T05:03:51;8.83;;;6.77;;
37303;SDS011;23188;51.188;16.374;2022-08-21T05:07:57;6.85;;;6.03;;
37303;SDS011;23188;51.188;16.374;2022-08-21T05:12:02;7.35;;;6.65;;
37303;SDS011;23188;51.188;16.374;2022-08-21T05:16:04;12.93;;;7.25;;
37303;SDS011;23188;51.188;16.374;2022-08-21T05:20:06;8.73;;;6.58;;
37303;SDS011;23188;51.188;16.374;2022-08-21T05:24:08;6.58;;;4.78;;
37303;SDS011;23188;51.188;16.374;2022-08-21T05:28:10;7.08;;;4.95;;
37303;SDS011;23188;51.188;16.374;2022-08-21T05:32:13;5.62;;;4.87;;
37303;SDS011;23188;51.188;16.374;2022-08-21T05:36:16;5.97;;;5.40;;
37303;SDS011;23188;51.188;16.374;2022-08-21T05:40:19;5.83;;;4.72;;
37303;SDS011;23188;51.188;16.374;2022-08-21T05:44:20;4.90;;;4.42;;
37303;SDS011;23188;51.188;16.374;2022-08-21T05:48:23;5.83;;;5.30;;
37303;SDS011;23188;51.188;16.374;2022-08-21T05:52:25;4.72;;;3.85;;
37303;SDS011;23188;51.188;16.374;2022-08-21T05:56:27;5.58;;;4.87;;
37303;SDS011;23188;51.188;16.374;2022-08-21T06:00:28;4.28;;;3.85;;
37303;SDS011;23188;51.188;16.374;2022-08-21T06:04:31;6.80;;;4.62;;
37303;SDS011;23188;51.188;16.374;2022-08-21T06:08:39;6.65;;;5.70;;
37303;SDS011;23188;51.188;16.374;2022-08-21T06:12:40;8.15;;;4.87;;
37303;SDS011;23188;51.188;16.374;2022-08-21T06:16:42;4.33;;;3.92;;
37303;SDS011;23188;51.188;16.374;2022-08-21T06:20:44;6.80;;;3.65;;
37303;SDS011;23188;51.188;16.374;2022-08-21T06:24:46;8.80;;;4.25;;
37303;SDS011;23188;51.188;16.374;2022-08-21T06:28:48;4.78;;;4.17;;
37303;SDS011;23188;51.188;16.374;2022-08-21T06:32:49;10.20;;;4.28;;
37303;SDS011;23188;51.188;16.374;2022-08-21T06:36:51;11.22;;;4.67;;
37303;SDS011;23188;51.188;16.374;2022-08-21T06:40:52;7.45;;;5.03;;
37303;SDS011;23188;51.188;16.374;2022-08-21T06:44:54;7.87;;;3.62;;
37303;SDS011;23188;51.188;16.374;2022-08-21T06:48:56;4.47;;;3.52;;
37303;SDS011;23188;51.188;16.374;2022-08-21T06:53:04;5.30;;;4.80;;
37303;SDS011;23188;51.188;16.374;2022-08-21T06:57:04;7.83;;;4.72;;
37303;SDS011;23188;51.188;16.374;2022-08-21T07:01:06;10.00;;;3.87;;
37303;SDS011;23188;51.188;16.374;2022-08-21T07:05:08;5.65;;;3.55;;
37303;SDS011;23188;51.188;16.374;2022-08-21T07:09:09;3.95;;;2.98;;
37303;SDS011;23188;51.188;16.374;2022-08-21T07:13:11;5.62;;;3.50;;
37303;SDS011;23188;51.188;16.374;2022-08-21T07:17:12;5.20;;;2.98;;
37303;SDS011;23188;51.188;16.374;2022-08-21T07:21:14;5.37;;;4.33;;
37303;SDS011;23188;51.188;16.374;2022-08-21T07:25:16;9.10;;;4.33;;
37303;SDS011;23188;51.188;16.374;2022-08-21T07:29:18;3.92;;;2.98;;
37303;SDS011;23188;51.188;16.374;2022-08-21T07:33:20;4.75;;;3.30;;
37303;SDS011;23188;51.188;16.374;2022-08-21T07:37:21;6.65;;;4.62;;
37303;SDS011;23188;51.188;16.374;2022-08-21T07:41:24;7.95;;;4.50;;
37303;SDS011;23188;51.188;16.374;2022-08-21T07:45:30;6.30;;;2.55;;
37303;SDS011;23188;51.188;16.374;2022-08-21T07:49:32;6.42;;;4.42;;
37303;SDS011;23188;51.188;16.374;2022-08-21T07:53:34;5.87;;;3.67;;
37303;SDS011;23188;51.188;16.374;2022-08-21T07:57:36;5.53;;;3.87;;
37303;SDS011;23188;51.188;16.374;2022-08-21T08:01:38;4.87;;;3.15;;
37303;SDS011;23188;51.188;16.374;2022-08-21T08:05:40;8.38;;;3.55;;
37303;SDS011;23188;51.188;16.374;2022-08-21T08:09:41;6.10;;;3.08;;
37303;SDS011;23188;51.188;16.374;2022-08-21T08:13:45;4.78;;;3.35;;
37303;SDS011;23188;51.188;16.374;2022-08-21T08:17:49;6.00;;;2.98;;
37303;SDS011;23188;51.188;16.374;2022-08-21T08:21:51;6.03;;;3.95;;
37303;SDS011;23188;51.188;16.374;2022-08-21T08:25:53;6.83;;;3.42;;
37303;SDS011;23188;51.188;16.374;2022-08-21T08:29:54;5.40;;;3.47;;
37303;SDS011;23188;51.188;16.374;2022-08-21T08:33:56;4.35;;;2.87;;
37303;SDS011;23188;51.188;16.374;2022-08-21T08:37:57;4.55;;;3.95;;
37303;SDS011;23188;51.188;16.374;2022-08-21T08:42:01;3.50;;;2.98;;
37303;SDS011;23188;51.188;16.374;2022-08-21T08:46:15;5.75;;;3.83;;
37303;SDS011;23188;51.188;16.374;2022-08-21T08:50:25;3.75;;;2.70;;
37303;SDS011;23188;51.188;16.374;2022-08-21T08:58:55;7.50;;;4.00;;
37303;SDS011;23188;51.188;16.374;2022-08-21T09:03:02;8.80;;;3.47;;
37303;SDS011;23188;51.188;16.374;2022-08-21T09:12:04;13.98;;;3.42;;
37303;SDS011;23188;51.188;16.374;2022-08-21T09:30:05;4.08;;;2.55;;
37303;SDS011;23188;51.188;16.374;2022-08-21T09:34:11;3.50;;;2.40;;
37303;SDS011;23188;51.188;16.374;2022-08-21T09:42:23;4.80;;;2.85;;
37303;SDS011;23188;51.188;16.374;2022-08-21T09:46:29;4.35;;;2.20;;
37303;SDS011;23188;51.188;16.374;2022-08-21T09:50:31;6.37;;;3.52;;
37303;SDS011;23188;51.188;16.374;2022-08-21T09:54:34;4.47;;;3.17;;
37303;SDS011;23188;51.188;16.374;2022-08-21T10:02:41;7.97;;;1.67;;
37303;SDS011;23188;51.188;16.374;2022-08-21T10:06:43;2.98;;;2.17;;
37303;SDS011;23188;51.188;16.374;2022-08-21T10:10:44;6.92;;;2.92;;
37303;SDS011;23188;51.188;16.374;2022-08-21T10:24:03;2.50;;;1.65;;
37303;SDS011;23188;51.188;16.374;2022-08-21T10:28:24;3.30;;;2.52;;
37303;SDS011;23188;51.188;16.374;2022-08-21T10:32:50;1.98;;;1.42;;
37303;SDS011;23188;51.188;16.374;2022-08-21T10:46:29;2.70;;;2.10;;
37303;SDS011;23188;51.188;16.374;2022-08-21T10:50:44;6.92;;;3.30;;
37303;SDS011;23188;51.188;16.374;2022-08-21T10:55:06;4.35;;;3.15;;
37303;SDS011;23188;51.188;16.374;2022-08-21T11:03:45;5.20;;;2.15;;
37303;SDS011;23188;51.188;16.374;2022-08-21T11:12:17;2.15;;;2.02;;
37303;SDS011;23188;51.188;16.374;2022-08-21T11:20:42;4.15;;;1.92;;
37303;SDS011;23188;51.188;16.374;2022-08-21T11:29:27;2.90;;;2.55;;
37303;SDS011;23188;51.188;16.374;2022-08-21T11:46:27;4.33;;;1.82;;
37303;SDS011;23188;51.188;16.374;2022-08-21T11:50:40;6.60;;;2.77;;
37303;SDS011;23188;51.188;16.374;2022-08-21T11:54:59;2.90;;;1.90;;
37303;SDS011;23188;51.188;16.374;2022-08-21T11:59:06;2.50;;;1.95;;
37303;SDS011;23188;51.188;16.374;2022-08-21T12:03:11;3.50;;;2.65;;
37303;SDS011;23188;51.188;16.374;2022-08-21T12:07:27;4.37;;;2.45;;
37303;SDS011;23188;51.188;16.374;2022-08-21T12:11:45;4.03;;;2.95;;
37303;SDS011;23188;51.188;16.374;2022-08-21T12:15:49;5.12;;;3.20;;
37303;SDS011;23188;51.188;16.374;2022-08-21T12:19:58;3.72;;;2.77;;
37303;SDS011;23188;51.188;16.374;2022-08-21T12:28:21;7.37;;;3.62;;
37303;SDS011;23188;51.188;16.374;2022-08-21T12:32:25;4.17;;;3.22;;
37303;SDS011;23188;51.188;16.374;2022-08-21T12:36:37;3.92;;;3.42;;
37303;SDS011;23188;51.188;16.374;2022-08-21T12:40:52;5.03;;;3.77;;
37303;SDS011;23188;51.188;16.374;2022-08-21T12:45:09;5.83;;;3.60;;
37303;SDS011;23188;51.188;16.374;2022-08-21T12:49:36;4.10;;;3.70;;
37303;SDS011;23188;51.188;16.374;2022-08-21T12:53:51;4.72;;;4.10;;
37303;SDS011;23188;51.188;16.374;2022-08-21T12:57:55;5.40;;;3.95;;
37303;SDS011;23188;51.188;16.374;2022-08-21T13:01:58;7.47;;;3.80;;
37303;SDS011;23188;51.188;16.374;2022-08-21T13:06:04;5.72;;;4.67;;
37303;SDS011;23188;51.188;16.374;2022-08-21T13:10:23;5.37;;;4.15;;
37303;SDS011;23188;51.188;16.374;2022-08-21T13:14:37;7.80;;;4.55;;
37303;SDS011;23188;51.188;16.374;2022-08-21T13:18:52;8.50;;;3.60;;
37303;SDS011;23188;51.188;16.374;2022-08-21T13:23:05;6.97;;;3.25;;
37303;SDS011;23188;51.188;16.374;2022-08-21T13:27:19;8.68;;;4.50;;
37303;SDS011;23188;51.188;16.374;2022-08-21T13:31:27;5.10;;;4.67;;
37303;SDS011;23188;51.188;16.374;2022-08-21T13:35:36;20.57;;;4.85;;
37303;SDS011;23188;51.188;16.374;2022-08-21T13:39:53;5.92;;;4.87;;
37303;SDS011;23188;51.188;16.374;2022-08-21T13:43:59;7.00;;;4.58;;
37303;SDS011;23188;51.188;16.374;2022-08-21T13:48:06;6.83;;;4.87;;
37303;SDS011;23188;51.188;16.374;2022-08-21T13:52:19;4.65;;;3.90;;
37303;SDS011;23188;51.188;16.374;2022-08-21T13:56:31;5.28;;;4.78;;
37303;SDS011;23188;51.188;16.374;2022-08-21T14:00:47;8.13;;;4.87;;
37303;SDS011;23188;51.188;16.374;2022-08-21T14:04:56;7.30;;;4.10;;
37303;SDS011;23188;51.188;16.374;2022-08-21T14:09:00;18.98;;;5.15;;
37303;SDS011;23188;51.188;16.374;2022-08-21T14:13:06;4.85;;;3.60;;
37303;SDS011;23188;51.188;16.374;2022-08-21T14:17:13;7.78;;;3.95;;
37303;SDS011;23188;51.188;16.374;2022-08-21T14:21:28;8.75;;;4.80;;
37303;SDS011;23188;51.188;16.374;2022-08-21T14:25:43;5.62;;;4.03;;
37303;SDS011;23188;51.188;16.374;2022-08-21T14:29:44;6.72;;;4.83;;
37303;SDS011;23188;51.188;16.374;2022-08-21T14:33:46;4.70;;;3.17;;
37303;SDS011;23188;51.188;16.374;2022-08-21T14:37:48;5.47;;;3.87;;
37303;SDS011;23188;51.188;16.374;2022-08-21T14:41:54;5.03;;;4.50;;
37303;SDS011;23188;51.188;16.374;2022-08-21T14:45:57;5.80;;;4.20;;
37303;SDS011;23188;51.188;16.374;2022-08-21T14:50:01;7.25;;;4.40;;
37303;SDS011;23188;51.188;16.374;2022-08-21T14:54:02;3.65;;;3.30;;
37303;SDS011;23188;51.188;16.374;2022-08-21T14:58:03;3.87;;;3.47;;
37303;SDS011;23188;51.188;16.374;2022-08-21T15:02:06;8.35;;;4.92;;
37303;SDS011;23188;51.188;16.374;2022-08-21T15:06:09;12.73;;;5.08;;
37303;SDS011;23188;51.188;16.374;2022-08-21T15:10:11;5.30;;;4.08;;
37303;SDS011;23188;51.188;16.374;2022-08-21T15:14:17;11.00;;;4.28;;
37303;SDS011;23188;51.188;16.374;2022-08-21T15:18:22;6.40;;;5.28;;
37303;SDS011;23188;51.188;16.374;2022-08-21T15:22:26;5.30;;;4.50;;
37303;SDS011;23188;51.188;16.374;2022-08-21T15:26:27;9.65;;;5.25;;
37303;SDS011;23188;51.188;16.374;2022-08-21T15:30:28;6.83;;;4.92;;
37303;SDS011;23188;51.188;16.374;2022-08-21T15:34:31;6.85;;;5.42;;
37303;SDS011;23188;51.188;16.374;2022-08-21T15:38:32;7.45;;;4.90;;
37303;SDS011;23188;51.188;16.374;2022-08-21T15:42:34;5.80;;;5.08;;
37303;SDS011;23188;51.188;16.374;2022-08-21T15:46:36;6.05;;;4.97;;
37303;SDS011;23188;51.188;16.374;2022-08-21T15:50:39;7.33;;;5.58;;
37303;SDS011;23188;51.188;16.374;2022-08-21T15:54:41;8.03;;;5.05;;
37303;SDS011;23188;51.188;16.374;2022-08-21T15:58:42;6.30;;;5.20;;
37303;SDS011;23188;51.188;16.374;2022-08-21T16:02:44;8.45;;;5.37;;
37303;SDS011;23188;51.188;16.374;2022-08-21T16:06:49;8.73;;;5.70;;
37303;SDS011;23188;51.188;16.374;2022-08-21T16:10:52;10.35;;;5.42;;
37303;SDS011;23188;51.188;16.374;2022-08-21T16:14:53;10.10;;;5.83;;
37303;SDS011;23188;51.188;16.374;2022-08-21T16:18:55;6.15;;;4.78;;
37303;SDS011;23188;51.188;16.374;2022-08-21T16:22:56;6.12;;;5.40;;
37303;SDS011;23188;51.188;16.374;2022-08-21T16:26:59;10.30;;;5.05;;
37303;SDS011;23188;51.188;16.374;2022-08-21T16:31:00;5.22;;;4.72;;
37303;SDS011;23188;51.188;16.374;2022-08-21T16:35:02;6.00;;;4.28;;
37303;SDS011;23188;51.188;16.374;2022-08-21T16:39:05;5.75;;;4.30;;
37303;SDS011;23188;51.188;16.374;2022-08-21T16:43:06;3.92;;;3.52;;
37303;SDS011;23188;51.188;16.374;2022-08-21T16:47:07;8.35;;;4.45;;
37303;SDS011;23188;51.188;16.374;2022-08-21T16:51:09;4.97;;;3.58;;
37303;SDS011;23188;51.188;16.374;2022-08-21T16:55:13;4.20;;;3.40;;
37303;SDS011;23188;51.188;16.374;2022-08-21T16:59:14;3.70;;;3.40;;
37303;SDS011;23188;51.188;16.374;2022-08-21T17:03:16;4.80;;;4.37;;
37303;SDS011;23188;51.188;16.374;2022-08-21T17:07:21;4.53;;;2.87;;
37303;SDS011;23188;51.188;16.374;2022-08-21T17:11:27;3.67;;;2.90;;
37303;SDS011;23188;51.188;16.374;2022-08-21T17:15:36;3.90;;;3.12;;
37303;SDS011;23188;51.188;16.374;2022-08-21T17:19:39;4.12;;;2.10;;
37303;SDS011;23188;51.188;16.374;2022-08-21T17:23:41;4.70;;;2.20;;
37303;SDS011;23188;51.188;16.374;2022-08-21T17:27:43;2.35;;;2.15;;
37303;SDS011;23188;51.188;16.374;2022-08-21T17:31:47;3.87;;;2.47;;
37303;SDS011;23188;51.188;16.374;2022-08-21T17:35:48;3.25;;;2.33;;
37303;SDS011;23188;51.188;16.374;2022-08-21T17:39:49;2.83;;;2.25;;
37303;SDS011;23188;51.188;16.374;2022-08-21T17:43:51;3.60;;;2.67;;
37303;SDS011;23188;51.188;16.374;2022-08-21T17:47:54;3.15;;;2.67;;
37303;SDS011;23188;51.188;16.374;2022-08-21T17:51:55;3.47;;;2.47;;
37303;SDS011;23188;51.188;16.374;2022-08-21T17:55:57;4.45;;;2.90;;
37303;SDS011;23188;51.188;16.374;2022-08-21T17:59:58;2.95;;;1.77;;
37303;SDS011;23188;51.188;16.374;2022-08-21T18:04:00;2.52;;;2.25;;
37303;SDS011;23188;51.188;16.374;2022-08-21T18:08:02;2.85;;;2.52;;
37303;SDS011;23188;51.188;16.374;2022-08-21T18:12:03;3.95;;;2.58;;
37303;SDS011;23188;51.188;16.374;2022-08-21T18:16:05;4.05;;;2.33;;
37303;SDS011;23188;51.188;16.374;2022-08-21T18:20:08;4.97;;;2.50;;
37303;SDS011;23188;51.188;16.374;2022-08-21T18:24:10;3.42;;;2.40;;
37303;SDS011;23188;51.188;16.374;2022-08-21T18:28:11;3.47;;;2.77;;
37303;SDS011;23188;51.188;16.374;2022-08-21T18:32:13;2.62;;;2.42;;
37303;SDS011;23188;51.188;16.374;2022-08-21T18:36:19;3.22;;;2.65;;
37303;SDS011;23188;51.188;16.374;2022-08-21T18:40:20;3.15;;;2.30;;
37303;SDS011;23188;51.188;16.374;2022-08-21T18:44:22;3.20;;;2.77;;
37303;SDS011;23188;51.188;16.374;2022-08-21T18:48:27;2.98;;;2.67;;
37303;SDS011;23188;51.188;16.374;2022-08-21T18:52:29;3.95;;;2.47;;
37303;SDS011;23188;51.188;16.374;2022-08-21T18:56:30;2.65;;;2.45;;
37303;SDS011;23188;51.188;16.374;2022-08-21T19:00:35;3.12;;;2.47;;
37303;SDS011;23188;51.188;16.374;2022-08-21T19:04:45;3.85;;;2.90;;
37303;SDS011;23188;51.188;16.374;2022-08-21T19:08:48;3.77;;;2.80;;
37303;SDS011;23188;51.188;16.374;2022-08-21T19:12:50;2.55;;;2.17;;
37303;SDS011;23188;51.188;16.374;2022-08-21T19:16:51;2.45;;;2.25;;
37303;SDS011;23188;51.188;16.374;2022-08-21T19:20:52;3.00;;;1.35;;
37303;SDS011;23188;51.188;16.374;2022-08-21T19:24:54;1.67;;;1.57;;
37303;SDS011;23188;51.188;16.374;2022-08-21T19:28:56;3.42;;;2.52;;
37303;SDS011;23188;51.188;16.374;2022-08-21T19:33:03;2.47;;;1.90;;
37303;SDS011;23188;51.188;16.374;2022-08-21T19:37:06;2.37;;;2.12;;
37303;SDS011;23188;51.188;16.374;2022-08-21T19:45:14;2.37;;;1.70;;
37303;SDS011;23188;51.188;16.374;2022-08-21T19:49:17;2.52;;;1.70;;
37303;SDS011;23188;51.188;16.374;2022-08-21T19:53:22;2.90;;;2.15;;
37303;SDS011;23188;51.188;16.374;2022-08-21T19:57:23;2.58;;;1.57;;
37303;SDS011;23188;51.188;16.374;2022-08-21T20:01:25;2.17;;;1.80;;
37303;SDS011;23188;51.188;16.374;2022-08-21T20:05:27;2.52;;;2.22;;
37303;SDS011;23188;51.188;16.374;2022-08-21T20:09:28;3.00;;;1.77;;
37303;SDS011;23188;51.188;16.374;2022-08-21T20:13:31;3.70;;;2.20;;
37303;SDS011;23188;51.188;16.374;2022-08-21T20:17:33;5.55;;;2.20;;
37303;SDS011;23188;51.188;16.374;2022-08-21T20:21:34;3.65;;;2.37;;
37303;SDS011;23188;51.188;16.374;2022-08-21T20:25:37;4.37;;;2.58;;
37303;SDS011;23188;51.188;16.374;2022-08-21T20:29:38;2.17;;;1.67;;
37303;SDS011;23188;51.188;16.374;2022-08-21T20:33:40;3.83;;;1.92;;
37303;SDS011;23188;51.188;16.374;2022-08-21T20:37:41;2.80;;;1.40;;
37303;SDS011;23188;51.188;16.374;2022-08-21T20:41:42;3.02;;;1.82;;
37303;SDS011;23188;51.188;16.374;2022-08-21T20:45:44;5.92;;;2.90;;
37303;SDS011;23188;51.188;16.374;2022-08-21T20:49:52;2.87;;;2.15;;
37303;SDS011;23188;51.188;16.374;2022-08-21T20:54:38;1.82;;;1.50;;
37303;SDS011;23188;51.188;16.374;2022-08-21T20:58:41;2.27;;;1.82;;
37303;SDS011;23188;51.188;16.374;2022-08-21T21:06:57;2.55;;;2.12;;
37303;SDS011;23188;51.188;16.374;2022-08-21T21:15:23;1.87;;;1.42;;
37303;SDS011;23188;51.188;16.374;2022-08-21T21:19:38;3.77;;;2.77;;
37303;SDS011;23188;51.188;16.374;2022-08-21T21:24:01;4.50;;;2.40;;
37303;SDS011;23188;51.188;16.374;2022-08-21T21:28:07;3.12;;;2.22;;
37303;SDS011;23188;51.188;16.374;2022-08-21T21:32:16;2.75;;;1.37;;
37303;SDS011;23188;51.188;16.374;2022-08-21T21:36:21;2.60;;;1.72;;
37303;SDS011;23188;51.188;16.374;2022-08-21T21:40:51;5.62;;;1.80;;
37303;SDS011;23188;51.188;16.374;2022-08-21T21:54:29;2.25;;;1.90;;
37303;SDS011;23188;51.188;16.374;2022-08-21T22:03:07;5.30;;;2.10;;
37303;SDS011;23188;51.188;16.374;2022-08-21T22:07:28;2.10;;;1.92;;
37303;SDS011;23188;51.188;16.374;2022-08-21T22:16:11;5.15;;;2.08;;
37303;SDS011;23188;51.188;16.374;2022-08-21T22:20:14;6.42;;;1.92;;
37303;SDS011;23188;51.188;16.374;2022-08-21T22:24:24;3.60;;;2.25;;
37303;SDS011;23188;51.188;16.374;2022-08-21T22:28:29;2.85;;;1.75;;
37303;SDS011;23188;51.188;16.374;2022-08-21T22:32:38;2.80;;;2.05;;
37303;SDS011;23188;51.188;16.374;2022-08-21T22:36:48;3.50;;;1.98;;
37303;SDS011;23188;51.188;16.374;2022-08-21T22:40:48;4.10;;;1.82;;
37303;SDS011;23188;51.188;16.374;2022-08-21T22:44:51;2.15;;;1.82;;
37303;SDS011;23188;51.188;16.374;2022-08-21T22:48:58;7.75;;;2.25;;
37303;SDS011;23188;51.188;16.374;2022-08-21T22:53:04;3.00;;;2.40;;
37303;SDS011;23188;51.188;16.374;2022-08-21T22:57:23;3.42;;;2.20;;
37303;SDS011;23188;51.188;16.374;2022-08-21T23:05:33;5.12;;;1.80;;
37303;SDS011;23188;51.188;16.374;2022-08-21T23:09:37;7.30;;;2.37;;
37303;SDS011;23188;51.188;16.374;2022-08-21T23:13:48;4.42;;;1.87;;
37303;SDS011;23188;51.188;16.374;2022-08-21T23:18:05;6.60;;;1.98;;
37303;SDS011;23188;51.188;16.374;2022-08-21T23:26:47;5.97;;;2.12;;
37303;SDS011;23188;51.188;16.374;2022-08-21T23:35:27;3.70;;;2.35;;
